Time;durP1;ratioP1;P1;durP2;ratioP2;P2;SDS_P1;SDS_P2;PMS_P1;PMS_P2;Temp;Humidity;BMP_temperature;BMP_pressure;BME280_temperature;BME280_humidity;BME280_pressure;Samples;Min_cycle;Max_cycle;Signal;HPM_P1;HPM_P2
2023/01/17 00:01:38;;;;;;;34.35;26.45;;;19.80;59.20;;;;;;5049129;28;20404;-74
2023/01/17 00:09:51;;;;;;;32.97;24.48;;;19.80;59.20;;;;;;5048797;28;20025;-74
2023/01/17 00:12:19;;;;;;;35.42;25.35;;;19.80;59.10;;;;;;5049162;28;20104;-74
2023/01/17 00:14:45;;;;;;;30.38;24.25;;;19.80;59.20;;;;;;5047762;28;20032;-74
2023/01/17 00:17:11;;;;;;;29.95;23.52;;;19.80;59.80;;;;;;5046913;28;20698;-74
2023/01/17 01:35:05;;;;;;;27.40;17.95;;;19.40;50.00;;;;;;5052715;28;20021;-74
2023/01/17 01:37:31;;;;;;;31.23;20.40;;;19.30;52.20;;;;;;5052619;28;20041;-78
2023/01/17 01:39:57;;;;;;;21.73;15.57;;;19.40;52.70;;;;;;5045355;28;20032;-74
2023/01/17 01:42:22;;;;;;;31.17;15.90;;;19.50;53.60;;;;;;5052824;28;20025;-75
2023/01/17 01:44:51;;;;;;;28.40;15.10;;;19.50;53.90;;;;;;5052723;28;20021;-75
2023/01/17 01:47:29;;;;;;;26.27;15.15;;;19.50;54.30;;;;;;5052007;28;20484;-74
2023/01/17 01:49:56;;;;;;;25.58;16.15;;;19.50;54.30;;;;;;5053398;28;20100;-74
2023/01/17 01:52:24;;;;;;;32.20;17.85;;;19.60;54.40;;;;;;5053852;28;20051;-74
2023/01/17 01:54:56;;;;;;;27.75;18.27;;;19.60;54.80;;;;;;5053803;28;20033;-74
2023/01/17 01:57:26;;;;;;;31.92;17.02;;;19.60;55.30;;;;;;5053409;28;20064;-74
2023/01/17 01:59:58;;;;;;;25.17;16.50;;;19.60;54.90;;;;;;5053617;28;20053;-75
2023/01/17 02:02:26;;;;;;;26.15;15.65;;;19.60;54.90;;;;;;5053631;28;20033;-74
2023/01/17 02:04:52;;;;;;;25.65;16.55;;;19.60;55.00;;;;;;5035799;28;20619;-74
2023/01/17 02:07:26;;;;;;;24.20;15.82;;;19.60;55.40;;;;;;5052306;28;20068;-74
2023/01/17 02:09:52;;;;;;;26.95;16.15;;;19.70;55.50;;;;;;5053373;28;20096;-74
2023/01/17 02:12:19;;;;;;;22.95;15.68;;;19.70;55.70;;;;;;5053536;28;20037;-74
2023/01/17 02:14:45;;;;;;;24.50;15.95;;;19.70;55.80;;;;;;5052179;28;20476;-74
2023/01/17 02:17:24;;;;;;;24.30;15.40;;;19.70;55.90;;;;;;5053021;28;20036;-74
2023/01/17 02:20:14;;;;;;;27.58;15.60;;;19.70;56.00;;;;;;5027798;28;20036;-74
2023/01/17 02:22:58;;;;;;;28.67;15.82;;;19.70;56.10;;;;;;5055561;28;20025;-74
2023/01/17 02:25:56;;;;;;;26.73;15.70;;;19.70;56.40;;;;;;5073049;28;20078;-74
2023/01/17 02:28:43;;;;;;;26.35;16.25;;;19.70;56.50;;;;;;5072068;28;20541;-74
2023/01/17 02:31:35;;;;;;;39.70;14.77;;;19.70;56.60;;;;;;5072894;28;20036;-74
2023/01/17 02:34:34;;;;;;;23.98;15.68;;;19.70;56.70;;;;;;5071891;28;20037;-74
2023/01/17 02:37:17;;;;;;;24.10;14.55;;;19.70;56.80;;;;;;5072654;28;20040;-74
2023/01/17 02:39:58;;;;;;;23.27;13.98;;;19.70;56.90;;;;;;5071738;28;20051;-74
2023/01/17 02:42:32;;;;;;;26.55;14.25;;;19.70;57.50;;;;;;5072934;28;20020;-74
2023/01/17 02:44:58;;;;;;;27.42;14.75;;;19.70;57.00;;;;;;5072801;28;20044;-74
2023/01/17 02:47:27;;;;;;;23.73;14.32;;;19.70;57.20;;;;;;5054540;28;20067;-74
2023/01/17 02:50:15;;;;;;;33.72;14.88;;;19.70;57.30;;;;;;5071405;28;20059;-74
2023/01/17 02:53:09;;;;;;;23.05;14.77;;;19.70;57.30;;;;;;5071142;28;20111;-74
2023/01/17 02:55:50;;;;;;;23.40;14.13;;;19.70;57.30;;;;;;5071107;28;20043;-74
2023/01/17 02:58:16;;;;;;;22.88;14.07;;;19.80;57.40;;;;;;5072764;28;20539;-74
2023/01/17 03:01:06;;;;;;;26.73;13.70;;;19.80;57.50;;;;;;5072277;28;20111;-74
2023/01/17 03:03:53;;;;;;;24.17;14.15;;;19.70;57.50;;;;;;5054767;28;20119;-74
2023/01/17 03:06:26;;;;;;;25.15;13.75;;;19.70;57.60;;;;;;5071977;28;20029;-74
2023/01/17 03:08:53;;;;;;;24.88;13.65;;;19.70;57.60;;;;;;5071120;28;20028;-75
2023/01/17 03:11:19;;;;;;;24.42;14.18;;;19.70;57.70;;;;;;5071070;28;20032;-74
2023/01/17 03:13:45;;;;;;;20.85;13.48;;;19.70;57.70;;;;;;5071081;28;20028;-74
2023/01/17 03:16:15;;;;;;;24.23;14.40;;;19.80;57.90;;;;;;5070350;28;20042;-74
2023/01/17 03:18:41;;;;;;;23.92;13.70;;;19.80;58.00;;;;;;5072021;28;20120;-74
2023/01/17 03:21:07;;;;;;;26.27;15.93;;;19.80;58.10;;;;;;5070760;28;20111;-74
2023/01/17 03:23:32;;;;;;;25.75;14.77;;;19.80;58.20;;;;;;5072070;28;20029;-74
2023/01/17 03:25:58;;;;;;;22.50;14.02;;;19.80;58.20;;;;;;5071600;28;20056;-74
2023/01/17 03:28:24;;;;;;;24.67;13.80;;;19.80;58.30;;;;;;5070811;28;20039;-75
2023/01/17 03:30:50;;;;;;;21.80;13.63;;;19.80;58.30;;;;;;5071802;28;20036;-75
2023/01/17 03:33:17;;;;;;;23.75;13.93;;;19.80;58.30;;;;;;5070662;28;20024;-75
2023/01/17 03:35:44;;;;;;;24.77;14.15;;;19.80;58.40;;;;;;5070259;28;20037;-75
2023/01/17 03:38:10;;;;;;;20.98;13.30;;;19.80;58.40;;;;;;5070603;28;20035;-75
2023/01/17 03:40:36;;;;;;;20.88;13.35;;;19.80;58.40;;;;;;5071779;28;20021;-75
2023/01/17 03:43:01;;;;;;;22.83;13.50;;;19.80;58.50;;;;;;5071951;28;20365;-75
2023/01/17 03:45:27;;;;;;;21.98;13.18;;;19.80;58.60;;;;;;5071444;28;20031;-74
2023/01/17 03:47:55;;;;;;;24.73;13.32;;;19.80;58.50;;;;;;5071676;28;20052;-75
2023/01/17 03:50:21;;;;;;;21.77;13.38;;;19.80;58.60;;;;;;5070425;28;20119;-73
2023/01/17 03:52:47;;;;;;;22.23;13.77;;;19.80;58.60;;;;;;5071673;28;20123;-73
2023/01/17 03:55:13;;;;;;;18.77;12.52;;;19.80;58.60;;;;;;5070117;28;20020;-73
2023/01/17 03:57:38;;;;;;;22.05;13.07;;;19.80;58.60;;;;;;5070268;28;20025;-74
2023/01/17 04:00:05;;;;;;;22.92;12.77;;;19.80;58.70;;;;;;5070210;28;20483;-73
2023/01/17 04:02:32;;;;;;;19.70;12.05;;;19.80;58.70;;;;;;5070493;28;20040;-74
2023/01/17 04:04:58;;;;;;;19.73;12.70;;;19.80;58.70;;;;;;5070325;28;20024;-73
2023/01/17 04:07:24;;;;;;;24.90;12.95;;;19.80;58.70;;;;;;5070051;28;20392;-74
2023/01/17 04:09:50;;;;;;;19.27;11.88;;;19.80;58.80;;;;;;5071527;28;20032;-74
2023/01/17 04:12:15;;;;;;;17.85;11.70;;;19.80;58.80;;;;;;5071299;28;20029;-73
2023/01/17 04:14:41;;;;;;;21.00;11.82;;;19.80;58.80;;;;;;5071273;28;20032;-74
2023/01/17 04:17:12;;;;;;;19.95;11.73;;;19.80;58.90;;;;;;5069569;28;20090;-74
2023/01/17 04:19:38;;;;;;;21.30;12.07;;;19.80;59.00;;;;;;5053551;28;20035;-74
2023/01/17 04:22:03;;;;;;;22.67;12.43;;;19.80;58.90;;;;;;5071319;28;20025;-74
2023/01/17 04:24:29;;;;;;;19.33;11.57;;;19.70;58.90;;;;;;5070301;28;20028;-74
2023/01/17 04:26:55;;;;;;;19.95;12.27;;;19.80;59.00;;;;;;5070951;28;20099;-74
2023/01/17 04:29:24;;;;;;;18.42;11.80;;;19.80;58.90;;;;;;5072112;28;20086;-83
2023/01/17 04:31:50;;;;;;;20.38;11.57;;;19.80;59.00;;;;;;5010638;28;20531;-74
2023/01/17 04:34:16;;;;;;;21.23;11.70;;;19.80;59.00;;;;;;5010371;28;20118;-74
2023/01/17 04:36:42;;;;;;;22.00;11.98;;;19.80;59.00;;;;;;5011247;28;20026;-74
2023/01/17 04:39:07;;;;;;;22.13;11.93;;;19.80;59.00;;;;;;5011536;28;20022;-74
2023/01/17 04:41:33;;;;;;;17.25;11.27;;;19.80;59.00;;;;;;5011453;28;20034;-74
2023/01/17 04:44:00;;;;;;;17.73;11.07;;;19.80;59.00;;;;;;5011442;28;20512;-74
2023/01/17 04:46:27;;;;;;;18.67;11.38;;;19.80;59.00;;;;;;5011538;28;20056;-74
2023/01/17 04:48:52;;;;;;;19.85;11.00;;;19.80;59.00;;;;;;5011457;28;20089;-74
2023/01/17 04:51:18;;;;;;;20.50;10.90;;;19.80;59.00;;;;;;5011334;28;20025;-74
2023/01/17 04:53:44;;;;;;;16.92;10.32;;;19.80;59.10;;;;;;4993778;28;20037;-74
2023/01/17 04:56:10;;;;;;;19.02;10.85;;;19.80;59.00;;;;;;5010965;28;20033;-74
2023/01/17 04:58:35;;;;;;;17.70;10.18;;;19.80;59.10;;;;;;5011205;28;20022;-73
2023/01/17 05:01:03;;;;;;;17.67;10.75;;;19.80;59.20;;;;;;5011187;28;20022;-74
2023/01/17 05:03:29;;;;;;;19.25;11.00;;;19.80;59.20;;;;;;5011333;28;20386;-73
2023/01/17 05:05:55;;;;;;;16.58;10.35;;;19.80;59.20;;;;;;5003868;28;20034;-73
2023/01/17 05:08:21;;;;;;;16.92;10.27;;;19.80;59.30;;;;;;5009425;28;20041;-74
2023/01/17 05:10:47;;;;;;;16.73;10.60;;;19.80;59.30;;;;;;5010475;28;20397;-74
2023/01/17 05:13:13;;;;;;;18.15;10.70;;;19.80;59.30;;;;;;5009385;28;20029;-74
2023/01/17 05:15:39;;;;;;;22.65;10.70;;;19.80;59.30;;;;;;5010596;28;20022;-74
2023/01/17 05:18:07;;;;;;;25.80;11.60;;;19.80;59.30;;;;;;5010787;28;20038;-74
2023/01/17 05:20:35;;;;;;;21.15;11.10;;;19.80;59.50;;;;;;5011106;28;20026;-74
2023/01/17 05:23:01;;;;;;;17.92;10.45;;;19.80;59.60;;;;;;5011165;28;20080;-74
2023/01/17 05:25:28;;;;;;;19.42;10.80;;;19.80;59.50;;;;;;5012384;28;20033;-74
2023/01/17 05:27:55;;;;;;;17.83;10.65;;;19.80;59.50;;;;;;5013387;28;20142;-74
2023/01/17 05:30:21;;;;;;;17.92;9.43;;;19.80;59.50;;;;;;5014337;28;20033;-74
2023/01/17 05:32:48;;;;;;;16.75;9.70;;;19.80;59.60;;;;;;5014927;28;20421;-75
2023/01/17 05:35:18;;;;;;;20.10;10.70;;;19.80;59.60;;;;;;5014341;28;20034;-75
2023/01/17 05:37:48;;;;;;;16.05;9.65;;;19.80;59.50;;;;;;5014394;28;20037;-75
2023/01/17 05:40:18;;;;;;;19.85;10.10;;;19.80;59.50;;;;;;5014668;28;20417;-75
2023/01/17 05:42:45;;;;;;;15.93;9.68;;;19.80;59.50;;;;;;5013862;28;20029;-75
2023/01/17 05:45:15;;;;;;;18.50;9.43;;;19.70;59.50;;;;;;5013007;28;20036;-75
2023/01/17 05:47:48;;;;;;;;;;;19.80;59.60;;;;;;5014689;28;20420;-74
2023/01/17 05:50:16;;;;;;;14.70;9.18;;;19.80;59.30;;;;;;5013161;28;20292;-75
2023/01/17 05:52:55;;;;;;;16.95;10.10;;;19.80;59.60;;;;;;5012837;28;20030;-75
2023/01/17 05:55:22;;;;;;;16.23;9.60;;;19.80;59.40;;;;;;5013958;28;20022;-75
2023/01/17 05:57:48;;;;;;;16.23;9.32;;;19.80;59.40;;;;;;5012672;28;20037;-75
2023/01/17 06:00:15;;;;;;;16.20;9.73;;;19.80;59.30;;;;;;5014035;28;20088;-75
2023/01/17 06:02:41;;;;;;;16.58;9.35;;;19.80;59.70;;;;;;5012796;28;20113;-75
2023/01/17 06:05:07;;;;;;;15.38;9.23;;;19.80;59.00;;;;;;5012776;28;20041;-75
2023/01/17 06:07:33;;;;;;;18.33;9.45;;;19.80;59.20;;;;;;5013607;28;20026;-75
2023/01/17 06:09:59;;;;;;;16.40;9.07;;;19.70;59.40;;;;;;5013807;28;20041;-75
2023/01/17 06:12:24;;;;;;;16.67;9.95;;;19.80;59.50;;;;;;5012622;28;20172;-75
2023/01/17 06:14:50;;;;;;;17.30;9.25;;;19.80;59.60;;;;;;5013848;28;20137;-75
2023/01/17 06:17:16;;;;;;;15.98;8.93;;;19.70;59.70;;;;;;5013290;28;20101;-75
2023/01/17 06:19:42;;;;;;;16.20;9.50;;;19.80;59.80;;;;;;5013702;28;20046;-75
2023/01/17 06:22:07;;;;;;;17.40;9.25;;;19.70;59.80;;;;;;5013577;28;20362;-75
2023/01/17 06:24:33;;;;;;;15.57;8.75;;;19.70;59.10;;;;;;5012699;28;20355;-75
2023/01/17 06:26:59;;;;;;;17.98;9.32;;;19.70;59.80;;;;;;5013226;28;20105;-75
2023/01/17 06:29:25;;;;;;;17.25;8.82;;;19.80;59.80;;;;;;5013624;28;20473;-75
2023/01/17 06:31:51;;;;;;;15.05;8.88;;;19.80;59.80;;;;;;4996297;28;20146;-75
2023/01/17 06:34:16;;;;;;;15.77;9.45;;;19.70;59.70;;;;;;5013498;28;20045;-75
2023/01/17 06:36:42;;;;;;;17.42;9.43;;;19.70;59.90;;;;;;5028119;28;20034;-75
2023/01/17 06:39:11;;;;;;;15.68;8.93;;;19.80;59.50;;;;;;5011937;28;20402;-75
2023/01/17 06:41:37;;;;;;;16.38;8.85;;;19.80;59.90;;;;;;5012130;28;20037;-74
2023/01/17 06:44:06;;;;;;;17.73;9.10;;;19.80;59.90;;;;;;5012150;28;20025;-74
2023/01/17 06:46:32;;;;;;;14.48;8.30;;;19.80;59.80;;;;;;5011889;28;20489;-74
2023/01/17 06:48:57;;;;;;;15.10;9.15;;;19.80;59.80;;;;;;5028284;28;20034;-74
2023/01/17 06:51:23;;;;;;;19.35;8.93;;;19.80;59.90;;;;;;5012033;28;20490;-75
2023/01/17 06:53:49;;;;;;;14.27;8.60;;;19.80;60.00;;;;;;5028518;28;20030;-75
2023/01/17 06:56:15;;;;;;;26.88;8.85;;;19.80;59.90;;;;;;5011468;28;20069;-75
2023/01/17 06:58:40;;;;;;;18.10;9.20;;;19.80;59.80;;;;;;5012865;28;20025;-75
2023/01/17 07:01:09;;;;;;;17.30;9.07;;;19.70;59.70;;;;;;5012931;28;20028;-74
2023/01/17 07:03:35;;;;;;;15.38;8.50;;;19.80;59.70;;;;;;5012643;28;20034;-74
2023/01/17 07:06:01;;;;;;;14.93;8.32;;;19.80;59.60;;;;;;5012586;28;20029;-74
2023/01/17 07:08:28;;;;;;;15.18;8.57;;;19.80;59.80;;;;;;5012929;28;20056;-74
2023/01/17 07:10:59;;;;;;;14.50;8.45;;;19.70;59.90;;;;;;5012677;28;20033;-74
2023/01/17 07:13:25;;;;;;;16.25;9.32;;;19.70;59.70;;;;;;4995368;28;20046;-74
2023/01/17 07:15:51;;;;;;;13.88;8.45;;;19.70;59.70;;;;;;5012549;28;20112;-75
2023/01/17 07:18:22;;;;;;;14.63;8.50;;;19.70;59.80;;;;;;5027616;28;20108;-75
2023/01/17 07:20:48;;;;;;;18.02;8.80;;;19.70;59.50;;;;;;5012598;28;20061;-75
2023/01/17 07:23:14;;;;;;;14.00;8.68;;;19.70;59.50;;;;;;5010905;28;20034;-74
2023/01/17 07:25:40;;;;;;;14.70;8.30;;;19.70;59.80;;;;;;5012102;28;20029;-74
2023/01/17 07:28:06;;;;;;;14.88;8.02;;;19.70;59.50;;;;;;5011250;28;20033;-74
2023/01/17 07:30:32;;;;;;;17.42;8.75;;;19.70;59.90;;;;;;4994639;28;20448;-74
2023/01/17 07:32:58;;;;;;;15.23;8.60;;;19.80;60.00;;;;;;5012179;28;20030;-75
2023/01/17 07:35:27;;;;;;;18.35;7.97;;;19.70;59.80;;;;;;5012165;28;20076;-74
2023/01/17 07:37:53;;;;;;;13.90;8.15;;;19.70;59.90;;;;;;5010845;28;20034;-76
2023/01/17 07:40:21;;;;;;;12.57;7.60;;;19.70;59.80;;;;;;5012288;28;20497;-75
2023/01/17 07:42:47;;;;;;;14.27;8.15;;;19.80;60.10;;;;;;5010946;28;20417;-74
2023/01/17 07:45:14;;;;;;;15.40;7.65;;;19.70;60.10;;;;;;5011942;28;20466;-74
2023/01/17 07:47:40;;;;;;;15.55;8.30;;;19.80;59.90;;;;;;5026788;28;20030;-74
2023/01/17 07:50:07;;;;;;;13.93;8.10;;;19.80;60.10;;;;;;5011973;28;20080;-74
2023/01/17 07:52:33;;;;;;;14.85;7.93;;;19.80;60.40;;;;;;5012079;28;20045;-74
2023/01/17 07:54:58;;;;;;;13.77;8.10;;;19.80;60.30;;;;;;5012120;28;20037;-74
2023/01/17 07:57:24;;;;;;;16.77;7.63;;;19.80;60.20;;;;;;5026851;28;20111;-75
2023/01/17 07:59:51;;;;;;;14.90;8.30;;;19.80;59.90;;;;;;5010558;28;20021;-74
2023/01/17 08:02:19;;;;;;;14.07;8.10;;;19.80;60.20;;;;;;5010850;28;20080;-73
2023/01/17 08:04:45;;;;;;;18.48;8.10;;;19.80;59.60;;;;;;5011800;28;20030;-74
2023/01/17 08:07:12;;;;;;;17.52;7.53;;;19.80;60.20;;;;;;5010376;28;20061;-73
2023/01/17 08:09:43;;;;;;;13.30;7.63;;;19.70;60.20;;;;;;5010036;28;20025;-74
2023/01/17 08:12:09;;;;;;;13.18;7.35;;;19.80;60.20;;;;;;5011786;28;20030;-74
2023/01/17 08:14:35;;;;;;;15.50;7.82;;;19.80;60.20;;;;;;5010384;28;20521;-74
2023/01/17 08:17:06;;;;;;;15.43;8.27;;;19.80;60.40;;;;;;5010653;28;20026;-74
2023/01/17 08:19:31;;;;;;;26.88;7.97;;;19.80;60.00;;;;;;5010438;28;20030;-74
2023/01/17 08:21:57;;;;;;;15.40;7.70;;;19.80;60.20;;;;;;5010419;28;20030;-74
2023/01/17 08:24:23;;;;;;;14.85;7.65;;;19.80;60.40;;;;;;5011585;28;20029;-74
2023/01/17 08:26:49;;;;;;;16.20;7.97;;;19.80;60.20;;;;;;5010072;28;20096;-73
2023/01/17 08:29:14;;;;;;;17.98;7.50;;;19.80;60.50;;;;;;5011423;28;20545;-74
2023/01/17 08:31:40;;;;;;;14.57;7.47;;;19.80;60.40;;;;;;5011526;28;20121;-74
2023/01/17 08:34:06;;;;;;;15.07;7.05;;;19.80;60.10;;;;;;5011520;28;20064;-74
2023/01/17 08:36:32;;;;;;;13.18;7.05;;;19.80;60.50;;;;;;5011388;28;20029;-74
2023/01/17 08:38:58;;;;;;;13.80;6.78;;;19.80;60.40;;;;;;5011355;28;20555;-74
2023/01/17 08:41:26;;;;;;;12.68;7.57;;;19.80;60.40;;;;;;5026614;28;20391;-73
2023/01/17 08:43:51;;;;;;;15.25;7.63;;;19.80;60.30;;;;;;5011386;28;20030;-74
2023/01/17 08:46:18;;;;;;;16.00;7.65;;;19.80;60.60;;;;;;5011104;28;20033;-75
2023/01/17 08:48:44;;;;;;;16.20;7.18;;;19.80;60.30;;;;;;5011401;28;20450;-74
2023/01/17 08:51:10;;;;;;;14.02;7.35;;;19.80;60.40;;;;;;5011282;28;20034;-74
2023/01/17 08:53:36;;;;;;;20.98;7.30;;;19.80;60.60;;;;;;5007780;28;20030;-74
2023/01/17 08:56:04;;;;;;;16.15;7.20;;;19.80;60.20;;;;;;5006326;28;20030;-74
2023/01/17 08:58:31;;;;;;;17.25;7.28;;;19.80;60.50;;;;;;5007765;28;20037;-74
2023/01/17 09:01:01;;;;;;;16.98;7.30;;;19.80;60.50;;;;;;5004316;28;20088;-74
2023/01/17 09:03:28;;;;;;;14.55;6.82;;;19.90;60.70;;;;;;5011681;28;20454;-74
2023/01/17 09:06:01;;;;;;;19.40;7.75;;;19.90;60.90;;;;;;5011615;28;20512;-74
2023/01/17 09:08:27;;;;;;;16.85;7.82;;;19.90;61.10;;;;;;5011187;28;20046;-75
2023/01/17 09:10:53;;;;;;;20.20;8.00;;;19.90;61.70;;;;;;5011651;28;20492;-75
2023/01/17 09:13:18;;;;;;;23.65;8.18;;;19.90;61.80;;;;;;5013015;28;20072;-75
2023/01/17 09:15:44;;;;;;;16.65;7.43;;;19.90;61.70;;;;;;4994933;28;20271;-74
2023/01/17 09:18:10;;;;;;;14.70;7.43;;;19.90;62.10;;;;;;5013338;28;20097;-71
2023/01/17 09:20:36;;;;;;;20.20;12.98;;;19.90;61.70;;;;;;4995094;28;20478;-78
2023/01/17 09:23:02;;;;;;;20.67;12.13;;;19.80;61.00;;;;;;4994145;28;20048;-79
2023/01/17 09:25:28;;;;;;;9.35;5.03;;;19.50;55.20;;;;;;5010222;28;20029;-78
2023/01/17 09:27:54;;;;;;;21.83;6.13;;;19.30;48.60;;;;;;5012607;28;20076;-75
2023/01/17 09:30:20;;;;;;;20.70;5.88;;;19.20;48.90;;;;;;5011150;28;20065;-75
2023/01/17 09:32:55;;;;;;;46.17;7.60;;;19.20;50.50;;;;;;5011086;28;20036;-75
2023/01/17 09:35:21;;;;;;;18.38;6.05;;;19.30;51.00;;;;;;5010882;28;20037;-75
2023/01/17 09:37:50;;;;;;;42.85;6.60;;;19.30;51.80;;;;;;5014171;28;20389;-74
2023/01/17 09:40:20;;;;;;;21.27;5.93;;;19.40;53.80;;;;;;5013770;28;20359;-75
2023/01/17 09:42:50;;;;;;;25.80;7.88;;;19.50;53.50;;;;;;5013067;28;20043;-75
2023/01/17 09:45:18;;;;;;;16.95;6.25;;;19.50;53.00;;;;;;5045739;28;20026;-75
2023/01/17 09:47:52;;;;;;;13.35;6.38;;;19.50;53.70;;;;;;5014298;28;20466;-75
2023/01/17 09:50:31;;;;;;;13.85;5.95;;;19.50;54.40;;;;;;5014064;28;20061;-75
2023/01/17 09:53:04;;;;;;;14.35;5.80;;;19.50;54.90;;;;;;5046352;28;20072;-75
2023/01/17 09:56:00;;;;;;;20.52;5.90;;;19.50;55.10;;;;;;5013837;28;20120;-75
2023/01/17 09:58:48;;;;;;;13.63;5.40;;;19.50;55.20;;;;;;5014022;28;20040;-75
2023/01/17 10:01:30;;;;;;;13.50;5.65;;;19.50;55.30;;;;;;5014292;28;20030;-74
2023/01/17 10:04:07;;;;;;;17.63;6.05;;;19.50;55.20;;;;;;5014260;28;20037;-74
2023/01/17 10:07:00;;;;;;;15.85;5.50;;;19.50;55.60;;;;;;5013907;28;20030;-74
2023/01/17 10:09:51;;;;;;;30.02;5.88;;;19.50;55.70;;;;;;5014314;28;20083;-74
2023/01/17 10:12:37;;;;;;;12.98;5.63;;;19.50;55.70;;;;;;5045605;28;20044;-74
2023/01/17 10:15:29;;;;;;;16.98;5.53;;;19.60;55.80;;;;;;5013484;28;20548;-74
2023/01/17 10:18:25;;;;;;;15.20;5.60;;;19.50;55.90;;;;;;5045620;28;20042;-74
2023/01/17 10:21:11;;;;;;;15.73;5.70;;;19.50;55.80;;;;;;5013626;28;20033;-74
2023/01/17 10:23:52;;;;;;;13.98;5.43;;;19.50;55.90;;;;;;5013806;28;20026;-74
2023/01/17 10:26:24;;;;;;;12.90;5.88;;;19.50;56.10;;;;;;5013430;28;20116;-74
2023/01/17 10:28:55;;;;;;;11.65;5.68;;;19.50;56.10;;;;;;5013655;28;20041;-74
2023/01/17 10:31:26;;;;;;;19.13;5.25;;;19.50;56.10;;;;;;5012422;28;20034;-74
2023/01/17 10:33:54;;;;;;;14.57;5.93;;;19.50;56.20;;;;;;5013604;28;20030;-74
2023/01/17 10:36:23;;;;;;;17.40;5.72;;;19.50;56.20;;;;;;5012982;28;20041;-73
2023/01/17 10:38:59;;;;;;;16.10;5.78;;;19.50;56.90;;;;;;5013299;28;20038;-74
2023/01/17 10:41:35;;;;;;;15.75;5.65;;;19.60;56.30;;;;;;5013323;28;20530;-74
2023/01/17 10:44:33;;;;;;;11.95;5.10;;;19.60;56.40;;;;;;5013381;28;20026;-74
2023/01/17 10:47:22;;;;;;;11.98;5.30;;;19.50;56.20;;;;;;5012826;28;20029;-74
2023/01/17 10:49:51;;;;;;;13.63;5.07;;;19.50;56.30;;;;;;5013307;28;20054;-74
2023/01/17 10:52:46;;;;;;;15.73;5.25;;;19.60;56.50;;;;;;4995680;28;20057;-74
2023/01/17 10:55:21;;;;;;;13.18;5.35;;;19.60;56.30;;;;;;5013197;28;20061;-74
2023/01/17 10:57:48;;;;;;;18.98;5.50;;;19.60;56.40;;;;;;5013145;28;20030;-74
2023/01/17 11:00:51;;;;;;;10.15;4.60;;;19.60;56.40;;;;;;5012871;28;20034;-74
2023/01/17 11:03:22;;;;;;;11.80;5.30;;;19.50;56.40;;;;;;5018507;28;20036;-74
2023/01/17 11:06:13;;;;;;;11.57;4.88;;;19.60;56.40;;;;;;5011317;28;20386;-74
2023/01/17 11:09:09;;;;;;;15.48;4.93;;;19.60;56.60;;;;;;5011582;28;20045;-75
2023/01/17 11:11:46;;;;;;;12.32;4.93;;;19.50;56.50;;;;;;5012573;28;20034;-76
2023/01/17 11:14:22;;;;;;;13.07;4.68;;;19.50;56.50;;;;;;5012792;28;20077;-76
2023/01/17 11:16:59;;;;;;;12.70;5.22;;;19.50;56.60;;;;;;5012762;28;20029;-74
2023/01/17 11:19:31;;;;;;;11.35;5.13;;;19.60;56.60;;;;;;5012533;28;20033;-74
2023/01/17 11:22:03;;;;;;;11.68;5.43;;;19.50;56.60;;;;;;5012299;28;20112;-74
2023/01/17 11:24:39;;;;;;;9.88;5.00;;;19.50;56.60;;;;;;5012395;28;20156;-74
2023/01/17 11:27:06;;;;;;;11.68;5.15;;;19.50;56.60;;;;;;5011290;28;20084;-74
2023/01/17 11:29:39;;;;;;;15.45;5.57;;;19.50;56.60;;;;;;5011234;28;20414;-75
2023/01/17 11:32:29;;;;;;;10.85;5.03;;;19.50;56.60;;;;;;5012467;28;20120;-74
2023/01/17 11:35:26;;;;;;;10.02;4.63;;;19.50;56.70;;;;;;5012203;28;20041;-76
2023/01/17 11:38:03;;;;;;;;;;;19.50;56.80;;;;;;5012805;28;20080;-75
2023/01/17 11:40:43;;;;;;;13.27;5.57;;;19.50;57.40;;;;;;5012323;28;19913;-76
2023/01/17 11:43:22;;;;;;;9.88;5.00;;;19.50;56.70;;;;;;5010777;28;20533;-74
2023/01/17 11:46:17;;;;;;;10.73;4.68;;;19.60;56.70;;;;;;5014777;28;20072;-73
2023/01/17 11:48:49;;;;;;;10.52;4.55;;;19.60;56.70;;;;;;5018332;28;20292;-73
2023/01/17 11:51:40;;;;;;;10.68;4.90;;;19.60;56.70;;;;;;5018426;28;20045;-73
2023/01/17 11:54:15;;;;;;;9.70;4.80;;;19.60;56.70;;;;;;5019039;28;20092;-74
2023/01/17 11:56:44;;;;;;;10.13;4.57;;;19.60;56.70;;;;;;5012638;28;20034;-74
2023/01/17 11:59:36;;;;;;;18.55;5.30;;;19.60;57.20;;;;;;5013137;28;20485;-74
2023/01/17 12:02:30;;;;;;;22.67;5.13;;;19.50;56.90;;;;;;5012025;28;20038;-73
2023/01/17 12:05:18;;;;;;;21.83;5.53;;;19.50;57.00;;;;;;5011193;28;20033;-73
2023/01/17 12:08:01;;;;;;;10.75;5.10;;;19.60;57.20;;;;;;5011941;28;20037;-74
2023/01/17 12:10:36;;;;;;;11.40;4.35;;;19.60;57.30;;;;;;5010974;28;20113;-75
2023/01/17 12:16:53;;;;;;;14.00;5.25;;;19.60;56.90;;;;;;5002667;28;20562;-74
2023/01/17 12:19:49;;;;;;;12.32;5.15;;;19.60;57.00;;;;;;5011713;28;20109;-75
2023/01/17 12:22:41;;;;;;;11.38;5.30;;;19.70;59.00;;;;;;5008030;28;20034;-74
2023/01/17 12:25:31;;;;;;;15.40;5.13;;;19.80;58.00;;;;;;5007968;28;20726;-74
2023/01/17 12:28:31;;;;;;;10.93;4.65;;;19.80;61.00;;;;;;5006919;28;20398;-74
2023/01/17 12:30:57;;;;;;;;;;;19.90;61.60;;;;;;5002361;28;20591;-74
2023/01/17 12:33:52;;;;;;;8.93;4.53;;;19.90;61.00;;;;;;5005254;28;19917;-74
2023/01/17 12:36:20;;;;;;;14.52;4.57;;;19.90;61.50;;;;;;5008379;28;20034;-74
2023/01/17 12:38:47;;;;;;;15.73;5.10;;;19.90;60.90;;;;;;5009174;28;20034;-74
2023/01/17 12:41:29;;;;;;;17.85;5.82;;;20.00;60.50;;;;;;5009811;28;20482;-73
2023/01/17 12:43:59;;;;;;;18.17;5.15;;;19.90;60.00;;;;;;5010608;28;20030;-74
2023/01/17 12:46:44;;;;;;;12.13;4.72;;;19.90;59.70;;;;;;5010887;28;20455;-75
2023/01/17 12:49:28;;;;;;;13.85;4.97;;;19.90;59.80;;;;;;5011377;28;20044;-74
2023/01/17 12:52:24;;;;;;;11.05;4.90;;;20.00;59.50;;;;;;5011402;28;20045;-74
2023/01/17 12:54:56;;;;;;;11.23;5.35;;;20.00;59.70;;;;;;5025606;28;20544;-74
2023/01/17 12:57:50;;;;;;;10.73;4.95;;;19.90;59.70;;;;;;4994415;28;20038;-75
2023/01/17 13:00:21;;;;;;;12.27;4.85;;;19.90;59.60;;;;;;5008871;28;20038;-75
2023/01/17 13:03:11;;;;;;;17.38;5.10;;;19.90;59.80;;;;;;5009925;28;20268;-74
2023/01/17 13:05:44;;;;;;;9.73;4.38;;;19.90;59.80;;;;;;5026315;28;20497;-74
2023/01/17 13:08:33;;;;;;;15.20;4.95;;;19.90;59.50;;;;;;5010552;28;20041;-74
2023/01/17 13:11:09;;;;;;;7.88;4.47;;;19.90;59.60;;;;;;5009094;28;20427;-74
2023/01/17 13:13:35;;;;;;;11.60;4.32;;;19.90;59.50;;;;;;5011388;28;20088;-73
2023/01/17 13:16:13;;;;;;;10.45;4.18;;;19.90;59.30;;;;;;5010444;28;20034;-74
2023/01/17 13:18:45;;;;;;;9.30;4.70;;;19.90;59.40;;;;;;5010738;28;20048;-73
2023/01/17 13:21:28;;;;;;;11.50;4.57;;;19.90;59.50;;;;;;5010477;28;20026;-74
2023/01/17 13:24:04;;;;;;;10.00;4.25;;;19.90;59.60;;;;;;5009546;28;20030;-73
2023/01/17 13:26:53;;;;;;;8.80;3.90;;;19.90;59.30;;;;;;5010056;28;20353;-73
2023/01/17 13:29:43;;;;;;;10.47;4.20;;;19.90;59.30;;;;;;5001372;28;20049;-74
2023/01/17 13:32:15;;;;;;;10.70;4.50;;;19.90;59.30;;;;;;5009938;28;20049;-73
2023/01/17 13:34:50;;;;;;;12.90;4.55;;;19.90;59.30;;;;;;5010431;28;20034;-73
2023/01/17 13:37:46;;;;;;;16.83;4.95;;;19.90;59.30;;;;;;5010310;28;20062;-74
2023/01/17 13:40:30;;;;;;;14.90;4.18;;;19.90;59.30;;;;;;5008276;28;20034;-74
2023/01/17 13:42:59;;;;;;;10.90;4.22;;;19.90;59.50;;;;;;5006163;28;20029;-74
2023/01/17 13:45:34;;;;;;;13.98;4.80;;;19.90;59.30;;;;;;5020536;28;20061;-74
2023/01/17 13:48:29;;;;;;;9.02;4.32;;;19.90;59.30;;;;;;5010687;28;20037;-74
2023/01/17 13:50:56;;;;;;;13.05;4.65;;;19.90;59.20;;;;;;5008283;28;20279;-74
2023/01/17 13:53:34;;;;;;;11.95;4.68;;;19.90;59.20;;;;;;5010178;28;20406;-74
2023/01/17 13:56:09;;;;;;;9.95;4.47;;;19.90;59.20;;;;;;5009509;28;20088;-74
2023/01/17 13:59:02;;;;;;;14.32;4.38;;;19.90;59.20;;;;;;5008886;28;20049;-73
2023/01/17 14:01:33;;;;;;;7.65;4.05;;;19.90;59.30;;;;;;5009403;28;20049;-74
2023/01/17 14:04:04;;;;;;;10.95;4.20;;;19.90;59.30;;;;;;5010121;28;20037;-73
2023/01/17 14:06:39;;;;;;;11.00;4.18;;;19.90;59.10;;;;;;5005357;28;20030;-72
2023/01/17 14:09:17;;;;;;;10.27;4.50;;;19.90;59.00;;;;;;5010173;28;20036;-72
2023/01/17 14:12:09;;;;;;;10.05;4.40;;;19.90;59.00;;;;;;5009906;28;20501;-73
2023/01/17 14:14:41;;;;;;;10.00;4.43;;;19.90;58.80;;;;;;5009172;28;20056;-72
2023/01/17 14:17:21;;;;;;;13.75;4.60;;;19.90;58.80;;;;;;5009522;28;20025;-72
2023/01/17 14:19:48;;;;;;;;;;;19.90;58.70;;;;;;5010283;28;20557;-73
2023/01/17 14:22:19;;;;;;;9.23;4.28;;;19.90;58.80;;;;;;5009587;28;20452;-73
2023/01/17 14:25:18;;;;;;;10.98;4.43;;;19.90;58.80;;;;;;5009507;28;20061;-73
2023/01/17 14:28:03;;;;;;;14.23;4.55;;;19.90;59.00;;;;;;5009170;28;20036;-73